Pagina principale
METAR-TAF:

METAR-TAF

Aeroporti :

Trieste / Ronchi dei Legionari, Italia

Aeroporto di Trieste-Ronchi dei Legionari

latitudine: 45-49N, longitudine: 013-29E, altezza: 12 m

Osservazione

Il bollettino è stato emesso 36 minuti fa, alle 15:20 UTC
Vento 1 kt da direzioni variabili
Temperature 10°C
Umidità 71%
Pressione 1011 hPa
Visibilità 10 km o più
nessuna nube inferiore a 1500 m e nessun cumulonembo

METAR: LIPQ 191520Z VRB01KT CAVOK 10/05 Q1011

Ora: 16:56 (15:56 UTC)

Previsione

Il bollettino è stato emesso 4 ore e 56 minuti fa, alle 11:00 UTC
Previsione valida dal 19 alle 12 UTC al 20 alle 12 UTC
Vento 7 kt da nord/nord-est
Visibilità 10 km o più
Nubi sparse ad un'altezza di 3000 ft

TAF: LIPQ 191100Z 1912/2012 03007KT 9999 SCT030

Osservazioni e previsioni meteorologiche di più di 4000 aeroporti (messaggi METAR e TAF).

Le stazioni disponibili sono rappresentate dai dischi gialli e rossi sulla carta.

Puntare il mouse per vedere il nome della stazione.

Clicca sopra per visualizzare le osservazioni e previsioni meteorologiche.

Per cambiare la mappa : fare clic sui pulsanti verdi con una croce nera per ingrandire, il pulsante verde con un trattino per diminuire, o sulla freccia verde per le mappe adiacenti.


METAR-TAF: